Time;durP1;ratioP1;P1;durP2;ratioP2;P2;SDS_P1;SDS_P2;PMS_P1;PMS_P2;Temp;Humidity;BMP_temperature;BMP_pressure;BME280_temperature;BME280_humidity;BME280_pressure;Samples;Min_cycle;Max_cycle;Signal;HPM_P1;HPM_P2
2023/10/04 00:00:14;;;;;;;;;;;;;;;;;;5032380;28;20125;-63
2023/10/04 00:02:39;;;;;;;;;;;;;;;;;;5033976;28;19921;-63
2023/10/04 00:05:04;;;;;;;;;;;;;;;;;;5033964;28;20233;-63
2023/10/04 00:07:29;;;;;;;;;;;;;;;;;;5032497;28;20380;-64
2023/10/04 00:09:54;;;;;;;;;;;;;;;;;;5035123;28;19936;-63
2023/10/04 00:12:20;;;;;;;;;;;;;;;;;;5034784;28;19974;-64
2023/10/04 00:14:46;;;;;;;;;;;;;;;;;;5042705;28;19979;-63
2023/10/04 00:17:11;;;;;;;;;;;;;;;;;;5032793;28;20269;-63
2023/10/04 00:19:36;;;;;;;;;;;;;;;;;;5039511;28;19920;-64
2023/10/04 00:22:01;;;;;;;;;;;;;;;;;;5035054;28;19925;-64
2023/10/04 00:24:27;;;;;;;;;;;;;;;;;;5032686;28;19999;-64
2023/10/04 00:26:52;;;;;;;;;;;;;;;;;;5034276;28;19950;-64
2023/10/04 00:29:18;;;;;;;;;;;;;;;;;;5033344;28;20350;-63
2023/10/04 00:31:43;;;;;;;;;;;;;;;;;;5032614;28;19925;-63
2023/10/04 00:34:08;;;;;;;;;;;;;;;;;;5033134;28;19932;-64
2023/10/04 00:36:33;;;;;;;;;;;;;;;;;;5032568;28;19921;-64
2023/10/04 00:38:59;;;;;;;;;;;;;;;;;;5033298;28;20536;-64
2023/10/04 00:41:24;;;;;;;;;;;;;;;;;;5032172;28;20364;-63
2023/10/04 00:43:49;;;;;;;;;;;;;;;;;;5032112;28;19958;-63
2023/10/04 00:46:15;;;;;;;;;;;;;;;;;;5032321;28;20084;-63
2023/10/04 00:48:40;;;;;;;;;;;;;;;;;;5031405;28;19920;-63
2023/10/04 00:51:06;;;;;;;;;;;;;;;;;;5032060;28;20753;-64
2023/10/04 00:53:33;;;;;;;;;;;;;;;;;;5038516;28;20059;-63
2023/10/04 00:55:58;;;;;;;;;;;;;;;;;;5032364;28;20304;-63
2023/10/04 00:58:23;;;;;;;;;;;;;;;;;;5036246;28;19932;-64
2023/10/04 01:00:48;;;;;;;;;;;;;;;;;;5034008;28;19920;-63
2023/10/04 01:03:24;;;;;;;;;;;;;;;;;;5032323;28;19924;-63
2023/10/04 01:05:51;;;;;;;;;;;;;;;;;;5033130;28;20651;-62
2023/10/04 01:08:16;;;;;;;;;;;;;;;;;;5034888;28;19947;-63
2023/10/04 01:10:43;;;;;;;;;;;;;;;;;;5045863;28;21675;-63
2023/10/04 01:13:09;;;;;;;;;;;;;;;;;;5032751;28;20485;-63
2023/10/04 01:15:36;;;;;;;;;;;;;;;;;;5041619;28;19921;-63
2023/10/04 01:18:01;;;;;;;;;;;;;;;;;;5034346;28;20467;-63
2023/10/04 01:20:33;;;;;;;;;;;;;;;;;;5030216;28;19920;-62
2023/10/04 01:23:01;;;;;;;;;;;;;;;;;;5033744;28;19981;-63
2023/10/04 01:25:27;;;;;;;;;;;;;;;;;;5032093;28;19962;-63
2023/10/04 01:27:52;;;;;;;;;;;;;;;;;;5038689;28;19999;-63
2023/10/04 01:30:17;;;;;;;;;;;;;;;;;;5031527;28;19959;-63
2023/10/04 01:32:43;;;;;;;;;;;;;;;;;;5031738;28;19923;-64
2023/10/04 01:35:08;;;;;;;;;;;;;;;;;;5030266;28;19950;-63
2023/10/04 01:37:36;;;;;;;;;;;;;;;;;;5031552;28;19920;-63
2023/10/04 01:40:05;;;;;;;;;;;;;;;;;;5030922;28;20255;-63
2023/10/04 01:42:30;;;;;;;;;;;;;;;;;;5032690;28;19917;-63
2023/10/04 01:44:55;;;;;;;;;;;;;;;;;;5030759;28;19924;-63
2023/10/04 01:47:21;;;;;;;;;;;;;;;;;;5031262;28;19921;-63
2023/10/04 01:49:46;;;;;;;;;;;;;;;;;;5029485;28;20454;-63
2023/10/04 01:52:11;;;;;;;;;;;;;;;;;;5031019;28;19913;-63
2023/10/04 01:54:36;;;;;;;;;;;;;;;;;;5032411;28;19998;-63
2023/10/04 01:57:04;;;;;;;;;;;;;;;;;;5032954;28;19978;-63
2023/10/04 01:59:30;;;;;;;;;;;;;;;;;;5036568;28;19921;-62
2023/10/04 02:01:57;;;;;;;;;;;;;;;;;;5032066;28;21859;-63
2023/10/04 02:04:23;;;;;;;;;;;;;;;;;;5029974;28;19992;-64
2023/10/04 02:06:48;;;;;;;;;;;;;;;;;;5030511;28;19917;-63
2023/10/04 02:09:13;;;;;;;;;;;;;;;;;;5032452;28;20166;-63
2023/10/04 02:11:41;;;;;;;;;;;;;;;;;;5031694;28;20496;-64
2023/10/04 02:14:06;;;;;;;;;;;;;;;;;;5030052;28;20386;-64
2023/10/04 02:16:34;;;;;;;;;;;;;;;;;;5031320;28;19920;-64
2023/10/04 02:19:00;;;;;;;;;;;;;;;;;;5029303;28;19923;-63
2023/10/04 02:21:26;;;;;;;;;;;;;;;;;;5043677;28;20291;-64
2023/10/04 02:23:51;;;;;;;;;;;;;;;;;;5030446;28;19990;-64
2023/10/04 02:26:16;;;;;;;;;;;;;;;;;;5031903;28;20392;-62
2023/10/04 02:28:41;;;;;;;;;;;;;;;;;;5039064;28;19952;-64
2023/10/04 02:31:07;;;;;;;;;;;;;;;;;;5030858;28;20031;-63
2023/10/04 02:33:38;;;;;;;;;;;;;;;;;;5030725;28;20384;-64
2023/10/04 02:36:09;;;;;;;;;;;;;;;;;;5044067;28;19935;-63
2023/10/04 02:38:35;;;;;;;;;;;;;;;;;;5032349;28;19927;-63
2023/10/04 02:41:00;;;;;;;;;;;;;;;;;;5030122;28;20438;-63
2023/10/04 02:43:25;;;;;;;;;;;;;;;;;;5031854;28;20182;-64
2023/10/04 02:45:52;;;;;;;;;;;;;;;;;;5029506;28;20043;-63
2023/10/04 02:48:17;;;;;;;;;;;;;;;;;;5031014;28;19982;-63
2023/10/04 02:50:43;;;;;;;;;;;;;;;;;;5029693;28;19921;-63
2023/10/04 02:53:16;;;;;;;;;;;;;;;;;;5030854;28;19925;-63
2023/10/04 02:55:42;;;;;;;;;;;;;;;;;;5030308;28;20014;-63
2023/10/04 02:58:07;;;;;;;;;;;;;;;;;;5036546;28;19913;-64
2023/10/04 03:00:33;;;;;;;;;;;;;;;;;;5029078;28;20482;-63
2023/10/04 03:02:58;;;;;;;;;;;;;;;;;;5030675;28;19920;-63
2023/10/04 03:05:23;;;;;;;;;;;;;;;;;;5029627;28;20753;-63
2023/10/04 03:07:52;;;;;;;;;;;;;;;;;;5031267;28;19927;-63
2023/10/04 03:10:23;;;;;;;;;;;;;;;;;;5029363;28;19920;-64
2023/10/04 03:12:51;;;;;;;;;;;;;;;;;;5035027;28;19921;-64
2023/10/04 03:15:16;;;;;;;;;;;;;;;;;;5032169;28;20017;-64
2023/10/04 03:17:41;;;;;;;;;;;;;;;;;;5035356;28;19920;-63
2023/10/04 03:20:20;;;;;;;;;;;;;;;;;;5032267;28;19921;-63
2023/10/04 03:22:45;;;;;;;;;;;;;;;;;;5034307;28;19927;-63
2023/10/04 03:25:10;;;;;;;;;;;;;;;;;;5034590;28;20396;-63
2023/10/04 03:27:35;;;;;;;;;;;;;;;;;;5035599;28;19916;-63
2023/10/04 03:30:01;;;;;;;;;;;;;;;;;;5036551;28;19943;-64
2023/10/04 03:32:27;;;;;;;;;;;;;;;;;;5038821;28;19927;-63
2023/10/04 03:34:53;;;;;;;;;;;;;;;;;;5031743;28;20333;-63
2023/10/04 03:37:23;;;;;;;;;;;;;;;;;;5033484;28;19924;-64
2023/10/04 03:39:48;;;;;;;;;;;;;;;;;;5050107;28;20240;-63
2023/10/04 03:42:13;;;;;;;;;;;;;;;;;;5034746;28;20682;-63
2023/10/04 03:44:38;;;;;;;;;;;;;;;;;;5032217;28;19920;-63
2023/10/04 03:47:03;;;;;;;;;;;;;;;;;;5033463;28;19921;-63
2023/10/04 03:49:29;;;;;;;;;;;;;;;;;;5032416;28;20002;-63
2023/10/04 03:51:54;;;;;;;;;;;;;;;;;;5033750;28;19916;-63
2023/10/04 03:54:19;;;;;;;;;;;;;;;;;;5031827;28;20596;-63
2023/10/04 03:56:44;;;;;;;;;;;;;;;;;;5036267;28;20058;-63
2023/10/04 03:59:10;;;;;;;;;;;;;;;;;;5043844;28;19923;-63
2023/10/04 04:01:37;;;;;;;;;;;;;;;;;;5035210;28;20387;-63
2023/10/04 04:04:03;;;;;;;;;;;;;;;;;;5032476;28;20060;-63
2023/10/04 04:06:28;;;;;;;;;;;;;;;;;;5033752;28;19916;-64
2023/10/04 04:08:56;;;;;;;;;;;;;;;;;;5031846;28;19920;-63
2023/10/04 04:11:22;;;;;;;;;;;;;;;;;;5034403;28;20159;-63
2023/10/04 04:13:47;;;;;;;;;;;;;;;;;;5031965;28;20526;-64
2023/10/04 04:16:16;;;;;;;;;;;;;;;;;;5033151;28;19922;-63
2023/10/04 04:18:41;;;;;;;;;;;;;;;;;;5037129;28;19913;-63
2023/10/04 04:21:07;;;;;;;;;;;;;;;;;;5033576;28;19920;-64
2023/10/04 04:23:32;;;;;;;;;;;;;;;;;;5032497;28;19917;-63
2023/10/04 04:25:57;;;;;;;;;;;;;;;;;;5048866;28;21030;-63
2023/10/04 04:28:24;;;;;;;;;;;;;;;;;;5033670;28;19921;-63
2023/10/04 04:30:51;;;;;;;;;;;;;;;;;;5031709;28;19924;-63
2023/10/04 04:33:17;;;;;;;;;;;;;;;;;;5034977;28;20219;-63
2023/10/04 04:38:16;;;;;;;;;;;;;;;;;;5033286;28;20011;-63
2023/10/04 04:40:46;;;;;;;;;;;;;;;;;;5031729;28;19928;-64
2023/10/04 04:43:23;;;;;;;;;;;;;;;;;;5034224;28;19924;-64
2023/10/04 04:45:51;;;;;;;;;;;;;;;;;;5030901;28;19920;-63
2023/10/04 04:48:16;;;;;;;;;;;;;;;;;;5048591;28;20304;-64
2023/10/04 04:50:41;;;;;;;;;;;;;;;;;;5030212;28;20224;-64
2023/10/04 04:53:14;;;;;;;;;;;;;;;;;;5032187;28;19924;-62
2023/10/04 04:55:39;;;;;;;;;;;;;;;;;;5032153;28;21097;-63
2023/10/04 04:58:05;;;;;;;;;;;;;;;;;;5043537;28;20384;-62
2023/10/04 05:00:33;;;;;;;;;;;;;;;;;;5031615;28;19957;-63
2023/10/04 05:03:00;;;;;;;;;;;;;;;;;;5034843;28;19946;-64
2023/10/04 05:05:25;;;;;;;;;;;;;;;;;;5030937;28;19948;-64
2023/10/04 05:07:50;;;;;;;;;;;;;;;;;;5034782;28;20134;-64
2023/10/04 05:10:17;;;;;;;;;;;;;;;;;;5048332;28;20495;-63
2023/10/04 05:12:43;;;;;;;;;;;;;;;;;;5035454;28;20011;-63
2023/10/04 05:15:21;;;;;;;;;;;;;;;;;;5033946;28;20023;-63
2023/10/04 05:17:50;;;;;;;;;;;;;;;;;;5031846;28;20435;-63
2023/10/04 05:20:19;;;;;;;;;;;;;;;;;;5031847;28;19947;-63
2023/10/04 05:22:45;;;;;;;;;;;;;;;;;;5033289;28;19924;-63
2023/10/04 05:25:10;;;;;;;;;;;;;;;;;;5036971;28;20403;-64
2023/10/04 05:27:36;;;;;;;;;;;;;;;;;;5039674;28;19912;-63
2023/10/04 05:30:02;;;;;;;;;;;;;;;;;;5035346;28;20338;-63
2023/10/04 05:32:27;;;;;;;;;;;;;;;;;;5037621;28;19916;-65
2023/10/04 05:34:53;;;;;;;;;;;;;;;;;;5033106;28;19928;-64
2023/10/04 05:37:18;;;;;;;;;;;;;;;;;;5032341;28;19999;-65
2023/10/04 05:39:43;;;;;;;;;;;;;;;;;;5029484;28;19967;-63
2023/10/04 05:42:08;;;;;;;;;;;;;;;;;;5033106;28;19920;-63
2023/10/04 05:44:34;;;;;;;;;;;;;;;;;;5035758;28;20479;-64
2023/10/04 05:46:59;;;;;;;;;;;;;;;;;;5034485;28;20914;-63
2023/10/04 05:49:26;;;;;;;;;;;;;;;;;;5035211;28;19921;-63
2023/10/04 05:51:51;;;;;;;;;;;;;;;;;;5038848;28;19960;-65
2023/10/04 05:54:16;;;;;;;;;;;;;;;;;;5031713;28;21853;-65
2023/10/04 05:56:41;;;;;;;;;;;;;;;;;;5038530;28;19924;-65
2023/10/04 05:59:10;;;;;;;;;;;;;;;;;;5041197;28;19916;-65
2023/10/04 06:01:37;;;;;;;;;;;;;;;;;;5035148;28;19955;-59
2023/10/04 06:04:03;;;;;;;;;;;;;;;;;;5034229;28;19920;-61
2023/10/04 06:06:28;;;;;;;;;;;;;;;;;;5036009;28;19955;-58
2023/10/04 06:08:54;;;;;;;;;;;;;;;;;;5036409;28;19921;-60
2023/10/04 06:11:19;;;;;;;;;;;;;;;;;;5037720;28;19920;-60
2023/10/04 06:13:44;;;;;;;;;;;;;;;;;;5031653;28;19974;-61
2023/10/04 06:16:10;;;;;;;;;;;;;;;;;;5032376;28;20358;-61
2023/10/04 06:18:35;;;;;;;;;;;;;;;;;;5030620;28;20534;-56
2023/10/04 06:21:00;;;;;;;;;;;;;;;;;;5029488;28;19948;-62
2023/10/04 06:23:25;;;;;;;;;;;;;;;;;;5030061;28;20285;-59
2023/10/04 06:25:50;;;;;;;;;;;;;;;;;;5027153;28;20299;-59
2023/10/04 06:28:15;;;;;;;;;;;;;;;;;;5030640;28;19964;-61
2023/10/04 06:30:41;;;;;;;;;;;;;;;;;;5028785;28;19920;-62
2023/10/04 06:33:06;;;;;;;;;;;;;;;;;;5031891;28;19986;-59
2023/10/04 06:35:32;;;;;;;;;;;;;;;;;;5034383;28;19928;-60
2023/10/04 06:37:57;;;;;;;;;;;;;;;;;;5029622;28;20534;-55
2023/10/04 06:40:22;;;;;;;;;;;;;;;;;;5031264;28;19920;-61
2023/10/04 06:42:48;;;;;;;;;;;;;;;;;;5037033;28;19921;-58
2023/10/04 06:45:13;;;;;;;;;;;;;;;;;;5029809;28;19921;-59
2023/10/04 06:47:38;;;;;;;;;;;;;;;;;;5039221;28;19924;-58
2023/10/04 06:50:05;;;;;;;;;;;;;;;;;;5030737;28;19920;-58
2023/10/04 06:52:30;;;;;;;;;;;;;;;;;;5028274;28;19920;-58
2023/10/04 06:54:55;;;;;;;;;;;;;;;;;;5027826;28;20103;-62
2023/10/04 06:57:22;;;;;;;;;;;;;;;;;;5028436;28;20502;-63
2023/10/04 06:59:49;;;;;;;;;;;;;;;;;;5039379;28;19917;-63
2023/10/04 07:02:14;;;;;;;;;;;;;;;;;;5032365;28;19952;-62
2023/10/04 07:04:39;;;;;;;;;;;;;;;;;;5030528;28;19927;-64
2023/10/04 07:07:04;;;;;;;;;;;;;;;;;;5035123;28;19951;-63
2023/10/04 07:09:29;;;;;;;;;;;;;;;;;;5030579;28;20691;-64
2023/10/04 07:11:55;;;;;;;;;;;;;;;;;;5029375;28;20323;-59
2023/10/04 07:14:20;;;;;;;;;;;;;;;;;;5032991;28;20443;-59
2023/10/04 07:16:45;;;;;;;;;;;;;;;;;;5030575;28;19931;-57
2023/10/04 07:19:11;;;;;;;;;;;;;;;;;;5028698;28;20431;-59
2023/10/04 07:21:37;;;;;;;;;;;;;;;;;;5037726;28;19912;-59
2023/10/04 07:24:02;;;;;;;;;;;;;;;;;;5028929;28;21543;-62
2023/10/04 07:26:28;;;;;;;;;;;;;;;;;;5031230;28;20390;-59
2023/10/04 07:28:55;;;;;;;;;;;;;;;;;;5035110;28;20350;-60
2023/10/04 07:31:21;;;;;;;;;;;;;;;;;;5038130;28;19994;-63
2023/10/04 07:33:46;;;;;;;;;;;;;;;;;;5029413;28;20457;-65
2023/10/04 07:36:11;;;;;;;;;;;;;;;;;;5029887;28;20048;-63
2023/10/04 07:38:36;;;;;;;;;;;;;;;;;;5033022;28;19928;-61
2023/10/04 07:41:01;;;;;;;;;;;;;;;;;;5029557;28;19925;-64
2023/10/04 07:43:27;;;;;;;;;;;;;;;;;;5035042;28;19920;-66
2023/10/04 07:45:52;;;;;;;;;;;;;;;;;;5032231;28;20081;-66
2023/10/04 07:48:17;;;;;;;;;;;;;;;;;;5030834;28;19913;-63
2023/10/04 07:50:42;;;;;;;;;;;;;;;;;;5028930;28;19942;-62
2023/10/04 07:53:07;;;;;;;;;;;;;;;;;;5032025;28;20480;-61
2023/10/04 07:55:33;;;;;;;;;;;;;;;;;;5034749;28;19924;-61
2023/10/04 07:58:02;;;;;;;;;;;;;;;;;;5036157;28;19966;-64
2023/10/04 08:00:27;;;;;;;;;;;;;;;;;;5032741;28;19963;-64
2023/10/04 08:02:52;;;;;;;;;;;;;;;;;;5034169;28;19920;-62
2023/10/04 08:05:20;;;;;;;;;;;;;;;;;;5030147;28;20006;-63
2023/10/04 08:07:46;;;;;;;;;;;;;;;;;;5033097;28;19916;-60
2023/10/04 08:10:12;;;;;;;;;;;;;;;;;;5035850;28;19927;-59
2023/10/04 08:12:38;;;;;;;;;;;;;;;;;;5034554;28;19921;-59
2023/10/04 08:15:03;;;;;;;;;;;;;;;;;;5032499;28;20073;-60
2023/10/04 08:17:28;;;;;;;;;;;;;;;;;;5030827;28;20380;-62
2023/10/04 08:19:54;;;;;;;;;;;;;;;;;;5047622;28;19921;-63
2023/10/04 08:22:20;;;;;;;;;;;;;;;;;;5039946;28;19912;-64
2023/10/04 08:24:46;;;;;;;;;;;;;;;;;;5032062;28;19967;-62
2023/10/04 08:27:12;;;;;;;;;;;;;;;;;;5037742;28;20018;-63
2023/10/04 08:29:37;;;;;;;;;;;;;;;;;;5030749;28;19928;-61
2023/10/04 08:32:03;;;;;;;;;;;;;;;;;;5032699;28;19966;-58
2023/10/04 08:34:28;;;;;;;;;;;;;;;;;;5039681;28;20328;-59
2023/10/04 08:36:53;;;;;;;;;;;;;;;;;;5035597;28;20041;-60
2023/10/04 08:39:18;;;;;;;;;;;;;;;;;;5029771;28;19920;-60
2023/10/04 08:41:44;;;;;;;;;;;;;;;;;;5021252;28;19928;-55
2023/10/04 08:44:09;;;;;;;;;;;;;;;;;;5025153;28;19969;-60
2023/10/04 08:46:34;;;;;;;;;;;;;;;;;;5034789;28;20591;-60
2023/10/04 08:49:00;;;;;;;;;;;;;;;;;;5032367;28;19921;-63
2023/10/04 08:51:28;;;;;;;;;;;;;;;;;;5032567;28;20426;-60
2023/10/04 08:53:53;;;;;;;;;;;;;;;;;;5031433;28;20376;-60
2023/10/04 08:56:18;;;;;;;;;;;;;;;;;;5030641;28;19931;-58
2023/10/04 08:58:43;;;;;;;;;;;;;;;;;;5037378;28;19916;-61
2023/10/04 09:01:08;;;;;;;;;;;;;;;;;;5033061;28;19912;-55
2023/10/04 09:03:33;;;;;;;;;;;;;;;;;;5032423;28;19921;-54
2023/10/04 09:05:59;;;;;;;;;;;;;;;;;;5033170;28;20011;-54
2023/10/04 09:08:24;;;;;;;;;;;;;;;;;;5031482;28;19963;-57
2023/10/04 09:10:49;;;;;;;;;;;;;;;;;;5030088;28;20543;-61
2023/10/04 09:13:15;;;;;;;;;;;;;;;;;;5035103;28;20354;-61
2023/10/04 09:15:40;;;;;;;;;;;;;;;;;;5030297;28;20404;-51
2023/10/04 09:18:05;;;;;;;;;;;;;;;;;;5028864;28;19921;-60
2023/10/04 09:20:32;;;;;;;;;;;;;;;;;;5030276;28;19920;-60
2023/10/04 09:22:59;;;;;;;;;;;;;;;;;;5037406;28;20167;-58
2023/10/04 09:25:24;;;;;;;;;;;;;;;;;;5034588;28;19923;-59
2023/10/04 09:27:49;;;;;;;;;;;;;;;;;;5056009;28;19913;-59
2023/10/04 09:30:14;;;;;;;;;;;;;;;;;;5033295;28;19917;-58
2023/10/04 09:32:40;;;;;;;;;;;;;;;;;;5034373;28;20537;-59
2023/10/04 09:35:05;;;;;;;;;;;;;;;;;;5030764;28;20463;-58
2023/10/04 09:37:30;;;;;;;;;;;;;;;;;;5036244;28;19920;-59
2023/10/04 09:39:55;;;;;;;;;;;;;;;;;;5029530;28;19921;-59
2023/10/04 09:42:23;;;;;;;;;;;;;;;;;;5032925;28;19942;-59
2023/10/04 09:44:49;;;;;;;;;;;;;;;;;;5031562;28;19967;-57
2023/10/04 09:47:14;;;;;;;;;;;;;;;;;;5031091;28;19963;-58
2023/10/04 09:49:40;;;;;;;;;;;;;;;;;;5029596;28;20032;-59
2023/10/04 09:52:05;;;;;;;;;;;;;;;;;;5032879;28;19985;-58
2023/10/04 09:54:31;;;;;;;;;;;;;;;;;;5031173;28;19935;-59
2023/10/04 09:56:56;;;;;;;;;;;;;;;;;;5031859;28;19932;-58
2023/10/04 09:59:21;;;;;;;;;;;;;;;;;;5035752;28;19927;-59
2023/10/04 10:01:46;;;;;;;;;;;;;;;;;;5030224;28;20003;-57
2023/10/04 10:04:12;;;;;;;;;;;;;;;;;;5018077;28;19916;-60
2023/10/04 10:06:38;;;;;;;;;;;;;;;;;;5038198;28;19938;-60
2023/10/04 10:09:04;;;;;;;;;;;;;;;;;;5031274;28;19962;-58
2023/10/04 10:11:29;;;;;;;;;;;;;;;;;;5034912;28;20003;-54
2023/10/04 10:13:54;;;;;;;;;;;;;;;;;;5031756;28;22736;-57
2023/10/04 10:16:19;;;;;;;;;;;;;;;;;;5077622;28;19983;-55
2023/10/04 10:18:44;;;;;;;;;;;;;;;;;;5028057;28;19920;-57
2023/10/04 10:21:09;;;;;;;;;;;;;;;;;;5027921;28;19919;-57
2023/10/04 10:23:35;;;;;;;;;;;;;;;;;;5030626;28;19917;-58
2023/10/04 10:26:00;;;;;;;;;;;;;;;;;;5030887;28;19916;-59
2023/10/04 10:28:25;;;;;;;;;;;;;;;;;;5030704;28;20422;-62
2023/10/04 10:30:52;;;;;;;;;;;;;;;;;;5025843;28;20034;-57
2023/10/04 10:33:17;;;;;;;;;;;;;;;;;;5028594;28;19947;-55
2023/10/04 10:35:42;;;;;;;;;;;;;;;;;;5028006;28;19929;-58
2023/10/04 10:38:08;;;;;;;;;;;;;;;;;;5027970;28;19928;-59
2023/10/04 10:40:35;;;;;;;;;;;;;;;;;;5027587;28;19967;-63
2023/10/04 10:43:00;;;;;;;;;;;;;;;;;;5030532;28;19948;-63
2023/10/04 10:45:28;;;;;;;;;;;;;;;;;;5025806;28;20356;-64
2023/10/04 10:47:56;;;;;;;;;;;;;;;;;;5031266;28;19921;-62
2023/10/04 10:50:21;;;;;;;;;;;;;;;;;;5026744;28;19956;-61
2023/10/04 10:52:46;;;;;;;;;;;;;;;;;;5029917;28;19921;-62
2023/10/04 10:55:16;;;;;;;;;;;;;;;;;;5028513;28;20300;-61
2023/10/04 10:57:43;;;;;;;;;;;;;;;;;;5031883;28;19970;-62
2023/10/04 11:00:18;;;;;;;;;;;;;;;;;;5033728;28;20076;-62
2023/10/04 11:02:43;;;;;;;;;;;;;;;;;;5033408;28;19966;-62
2023/10/04 11:05:09;;;;;;;;;;;;;;;;;;5027716;28;19917;-62
2023/10/04 11:07:36;;;;;;;;;;;;;;;;;;5027390;28;20312;-60
2023/10/04 11:10:01;;;;;;;;;;;;;;;;;;5017809;28;20726;-62
2023/10/04 11:12:26;;;;;;;;;;;;;;;;;;5020590;28;20338;-62
2023/10/04 11:14:51;;;;;;;;;;;;;;;;;;5019947;28;19979;-62
2023/10/04 11:17:16;;;;;;;;;;;;;;;;;;5020773;28;19920;-61
2023/10/04 11:19:42;;;;;;;;;;;;;;;;;;5017823;28;19921;-62
2023/10/04 11:22:08;;;;;;;;;;;;;;;;;;5032123;28;19920;-62
2023/10/04 11:24:33;;;;;;;;;;;;;;;;;;5030588;28;19948;-63
2023/10/04 11:26:58;;;;;;;;;;;;;;;;;;5030936;28;20185;-61
2023/10/04 11:29:23;;;;;;;;;;;;;;;;;;5043759;28;19921;-61
2023/10/04 11:31:48;;;;;;;;;;;;;;;;;;5049567;28;20443;-63
2023/10/04 11:34:14;;;;;;;;;;;;;;;;;;5032313;28;20423;-60
2023/10/04 11:36:40;;;;;;;;;;;;;;;;;;5033094;28;19921;-63
2023/10/04 11:39:12;;;;;;;;;;;;;;;;;;5032107;28;19927;-63
2023/10/04 11:41:39;;;;;;;;;;;;;;;;;;5042080;28;19971;-61
2023/10/04 11:44:04;;;;;;;;;;;;;;;;;;5030108;28;19921;-63
2023/10/04 11:46:29;;;;;;;;;;;;;;;;;;5033124;28;20390;-61
2023/10/04 11:48:54;;;;;;;;;;;;;;;;;;5031373;28;19921;-62
2023/10/04 11:51:19;;;;;;;;;;;;;;;;;;5035709;28;19912;-63
2023/10/04 11:53:45;;;;;;;;;;;;;;;;;;5032312;28;19935;-64
2023/10/04 11:56:11;;;;;;;;;;;;;;;;;;5033738;28;19961;-61
2023/10/04 11:58:36;;;;;;;;;;;;;;;;;;5044086;28;19920;-63
2023/10/04 12:01:01;;;;;;;;;;;;;;;;;;5031463;28;19928;-61
2023/10/04 12:03:26;;;;;;;;;;;;;;;;;;5026416;28;20571;-62
2023/10/04 12:05:51;;;;;;;;;;;;;;;;;;5029565;28;19920;-62
2023/10/04 12:08:19;;;;;;;;;;;;;;;;;;5030436;28;19923;-61
2023/10/04 12:10:46;;;;;;;;;;;;;;;;;;5028407;28;19959;-59
2023/10/04 12:13:13;;;;;;;;;;;;;;;;;;5030288;28;20372;-62
2023/10/04 12:15:39;;;;;;;;;;;;;;;;;;5031770;28;20696;-59
2023/10/04 12:18:04;;;;;;;;;;;;;;;;;;5035320;28;19948;-57
2023/10/04 12:20:35;;;;;;;;;;;;;;;;;;5031666;28;20401;-55
2023/10/04 12:23:01;;;;;;;;;;;;;;;;;;5033566;28;19931;-59
2023/10/04 12:25:28;;;;;;;;;;;;;;;;;;5035146;28;19920;-59
2023/10/04 12:27:53;;;;;;;;;;;;;;;;;;5032036;28;19921;-59
2023/10/04 12:30:19;;;;;;;;;;;;;;;;;;5033726;28;19919;-59
2023/10/04 12:32:46;;;;;;;;;;;;;;;;;;5032604;28;19927;-60
2023/10/04 12:35:13;;;;;;;;;;;;;;;;;;5031084;28;20536;-60
2023/10/04 12:37:38;;;;;;;;;;;;;;;;;;5032503;28;19931;-61
2023/10/04 12:40:11;;;;;;;;;;;;;;;;;;5031885;28;19921;-62
2023/10/04 12:42:36;;;;;;;;;;;;;;;;;;5034655;28;20129;-57
2023/10/04 12:45:01;;;;;;;;;;;;;;;;;;5029869;28;19921;-59
2023/10/04 12:47:26;;;;;;;;;;;;;;;;;;5033151;28;20691;-58
2023/10/04 12:49:51;;;;;;;;;;;;;;;;;;5037928;28;21396;-59
2023/10/04 12:52:16;;;;;;;;;;;;;;;;;;5032917;28;20532;-56
2023/10/04 12:54:42;;;;;;;;;;;;;;;;;;5032543;28;20255;-58
2023/10/04 12:57:07;;;;;;;;;;;;;;;;;;5033626;28;20004;-59
2023/10/04 12:59:33;;;;;;;;;;;;;;;;;;5037887;28;19978;-63
2023/10/04 13:01:59;;;;;;;;;;;;;;;;;;5031408;28;19956;-61
2023/10/04 13:04:26;;;;;;;;;;;;;;;;;;5030298;28;19928;-62
2023/10/04 13:06:51;;;;;;;;;;;;;;;;;;5035222;28;19959;-58
2023/10/04 13:09:19;;;;;;;;;;;;;;;;;;5032450;28;20392;-60
2023/10/04 13:11:46;;;;;;;;;;;;;;;;;;5032198;28;20470;-58
2023/10/04 13:14:11;;;;;;;;;;;;;;;;;;5046805;28;20007;-59
2023/10/04 13:16:36;;;;;;;;;;;;;;;;;;5032438;28;20277;-56
2023/10/04 13:19:02;;;;;;;;;;;;;;;;;;5027866;28;20307;-61
2023/10/04 13:21:27;;;;;;;;;;;;;;;;;;5032775;28;19989;-57
2023/10/04 13:23:52;;;;;;;;;;;;;;;;;;5028016;28;19916;-60
2023/10/04 13:26:17;;;;;;;;;;;;;;;;;;5029441;28;19923;-60
2023/10/04 13:28:43;;;;;;;;;;;;;;;;;;5031246;28;19964;-57
2023/10/04 13:31:15;;;;;;;;;;;;;;;;;;5029415;28;21695;-56
2023/10/04 13:33:40;;;;;;;;;;;;;;;;;;5028187;28;19920;-58
2023/10/04 13:36:05;;;;;;;;;;;;;;;;;;5026474;28;19924;-56
2023/10/04 13:38:30;;;;;;;;;;;;;;;;;;5027919;28;19931;-59
2023/10/04 13:40:55;;;;;;;;;;;;;;;;;;5028989;28;20513;-54
2023/10/04 13:43:21;;;;;;;;;;;;;;;;;;5030673;28;19924;-57
2023/10/04 13:45:48;;;;;;;;;;;;;;;;;;5029766;28;19981;-57
2023/10/04 13:48:13;;;;;;;;;;;;;;;;;;5028970;28;19920;-55
2023/10/04 13:50:38;;;;;;;;;;;;;;;;;;5029324;28;19917;-55
2023/10/04 13:53:04;;;;;;;;;;;;;;;;;;5033255;28;19916;-59
2023/10/04 13:55:29;;;;;;;;;;;;;;;;;;5027598;28;20384;-60
2023/10/04 13:58:00;;;;;;;;;;;;;;;;;;5034180;28;19913;-54
2023/10/04 14:00:25;;;;;;;;;;;;;;;;;;5036437;28;19921;-57
2023/10/04 14:02:50;;;;;;;;;;;;;;;;;;5027085;28;19921;-53
2023/10/04 14:05:19;;;;;;;;;;;;;;;;;;5028281;28;19916;-54
2023/10/04 14:07:44;;;;;;;;;;;;;;;;;;5027639;28;20020;-57
2023/10/04 14:10:10;;;;;;;;;;;;;;;;;;5025654;28;19916;-56
2023/10/04 14:12:35;;;;;;;;;;;;;;;;;;5019334;28;20366;-60
2023/10/04 14:15:00;;;;;;;;;;;;;;;;;;5017970;28;19928;-58
2023/10/04 14:17:27;;;;;;;;;;;;;;;;;;5029528;28;19967;-57
2023/10/04 14:19:52;;;;;;;;;;;;;;;;;;5028464;28;19921;-57
2023/10/04 14:22:17;;;;;;;;;;;;;;;;;;5030474;28;19920;-58
2023/10/04 14:24:42;;;;;;;;;;;;;;;;;;5046381;28;20419;-59
2023/10/04 14:27:07;;;;;;;;;;;;;;;;;;5024041;28;20359;-59
2023/10/04 14:29:33;;;;;;;;;;;;;;;;;;5027614;28;19920;-58
2023/10/04 14:31:59;;;;;;;;;;;;;;;;;;5035579;28;20665;-60
2023/10/04 14:34:24;;;;;;;;;;;;;;;;;;5034307;28;19927;-56
2023/10/04 14:36:49;;;;;;;;;;;;;;;;;;5032105;28;19921;-58
2023/10/04 14:39:14;;;;;;;;;;;;;;;;;;5031984;28;19920;-58
2023/10/04 14:41:41;;;;;;;;;;;;;;;;;;5030592;28;19920;-57
2023/10/04 14:44:06;;;;;;;;;;;;;;;;;;5031823;28;19921;-58
2023/10/04 14:46:32;;;;;;;;;;;;;;;;;;5030611;28;20050;-59
2023/10/04 14:48:57;;;;;;;;;;;;;;;;;;5032763;28;20422;-56
2023/10/04 14:51:22;;;;;;;;;;;;;;;;;;5030812;28;19920;-58
2023/10/04 14:53:48;;;;;;;;;;;;;;;;;;5030336;28;19929;-58
2023/10/04 14:56:14;;;;;;;;;;;;;;;;;;5039005;28;19936;-59
2023/10/04 14:58:39;;;;;;;;;;;;;;;;;;5039300;28;20019;-58
2023/10/04 15:01:07;;;;;;;;;;;;;;;;;;5027778;28;20031;-59
2023/10/04 15:03:32;;;;;;;;;;;;;;;;;;5035735;28;19920;-58
2023/10/04 15:05:57;;;;;;;;;;;;;;;;;;5031515;28;19924;-58
2023/10/04 15:08:22;;;;;;;;;;;;;;;;;;5078735;28;19917;-59
2023/10/04 15:10:50;;;;;;;;;;;;;;;;;;5035243;28;20131;-59
2023/10/04 15:13:15;;;;;;;;;;;;;;;;;;5033489;28;19924;-58
2023/10/04 15:15:40;;;;;;;;;;;;;;;;;;5039085;28;20372;-56
2023/10/04 15:18:05;;;;;;;;;;;;;;;;;;5032250;28;19917;-58
2023/10/04 15:20:30;;;;;;;;;;;;;;;;;;5029335;28;20376;-56
2023/10/04 15:22:56;;;;;;;;;;;;;;;;;;5031235;28;19917;-58
2023/10/04 15:25:23;;;;;;;;;;;;;;;;;;5029487;28;20082;-58
2023/10/04 15:27:54;;;;;;;;;;;;;;;;;;5034012;28;19951;-59
2023/10/04 15:30:19;;;;;;;;;;;;;;;;;;5030259;28;19943;-57
2023/10/04 15:32:45;;;;;;;;;;;;;;;;;;5029996;28;20659;-56
2023/10/04 15:35:13;;;;;;;;;;;;;;;;;;5029245;28;19958;-58
2023/10/04 15:37:38;;;;;;;;;;;;;;;;;;5028793;28;19920;-56
2023/10/04 15:40:03;;;;;;;;;;;;;;;;;;5030302;28;19924;-56
2023/10/04 15:42:28;;;;;;;;;;;;;;;;;;5030580;28;20952;-58
2023/10/04 15:44:54;;;;;;;;;;;;;;;;;;5028373;28;19923;-59
2023/10/04 15:47:20;;;;;;;;;;;;;;;;;;5035214;28;20325;-57
2023/10/04 15:49:45;;;;;;;;;;;;;;;;;;5027757;28;19920;-58
2023/10/04 15:52:11;;;;;;;;;;;;;;;;;;5030048;28;19936;-59
2023/10/04 15:54:36;;;;;;;;;;;;;;;;;;5030461;28;19928;-58
2023/10/04 15:57:01;;;;;;;;;;;;;;;;;;5028862;28;19998;-57
2023/10/04 15:59:27;;;;;;;;;;;;;;;;;;5042894;28;20593;-58
2023/10/04 16:01:52;;;;;;;;;;;;;;;;;;5026715;28;19978;-59
2023/10/04 16:04:19;;;;;;;;;;;;;;;;;;5031094;28;20307;-58
2023/10/04 16:06:44;;;;;;;;;;;;;;;;;;5027621;28;20322;-59
2023/10/04 16:09:10;;;;;;;;;;;;;;;;;;5031830;28;19917;-56
2023/10/04 16:11:35;;;;;;;;;;;;;;;;;;5028089;28;19917;-54
2023/10/04 16:14:00;;;;;;;;;;;;;;;;;;5039529;28;19958;-57
2023/10/04 16:16:26;;;;;;;;;;;;;;;;;;5028554;28;19932;-60
2023/10/04 16:18:51;;;;;;;;;;;;;;;;;;5036164;28;19964;-59
2023/10/04 16:21:16;;;;;;;;;;;;;;;;;;5030978;28;20199;-58
2023/10/04 16:23:42;;;;;;;;;;;;;;;;;;5036953;28;19921;-59
2023/10/04 16:26:07;;;;;;;;;;;;;;;;;;5031714;28;20026;-57
2023/10/04 16:28:32;;;;;;;;;;;;;;;;;;5048287;28;19913;-57
2023/10/04 16:30:57;;;;;;;;;;;;;;;;;;5031414;28;19939;-57
2023/10/04 16:33:22;;;;;;;;;;;;;;;;;;5041006;28;20358;-56
2023/10/04 16:35:48;;;;;;;;;;;;;;;;;;5032402;28;19928;-56
2023/10/04 16:38:13;;;;;;;;;;;;;;;;;;5033544;28;20654;-56